Time;durP1;ratioP1;P1;durP2;ratioP2;P2;SDS_P1;SDS_P2;PMS_P1;PMS_P2;Temp;Humidity;BMP_temperature;BMP_pressure;BME280_temperature;BME280_humidity;BME280_pressure;Samples;Min_cycle;Max_cycle;Signal;HPM_P1;HPM_P2
2021/06/03 00:00:54;;;;;;;4.57;0.55;;;21.20;94.80;;;;;;5000753;28;20015;-78
2021/06/03 00:03:20;;;;;;;1.00;0.57;;;21.20;95.20;;;;;;5000807;28;20119;-78
2021/06/03 00:05:52;;;;;;;2.63;0.50;;;21.20;96.50;;;;;;5020328;28;20010;-78
2021/06/03 00:08:19;;;;;;;0.68;0.50;;;21.20;96.30;;;;;;5034887;28;20033;-78
2021/06/03 00:10:57;;;;;;;0.90;0.65;;;21.10;97.30;;;;;;5019472;28;20036;-77
2021/06/03 00:13:24;;;;;;;1.58;0.63;;;21.00;98.60;;;;;;5019598;28;20036;-77
2021/06/03 00:15:50;;;;;;;1.38;0.50;;;21.00;99.30;;;;;;5018274;28;20453;-78
2021/06/03 00:18:16;;;;;;;2.80;0.73;;;21.00;99.90;;;;;;5022838;28;20072;-77
2021/06/03 00:20:42;;;;;;;3.25;0.50;;;21.00;99.90;;;;;;5013682;28;20025;-78
2021/06/03 00:23:08;;;;;;;4.10;0.63;;;20.90;99.90;;;;;;5018519;28;20036;-77
2021/06/03 00:25:34;;;;;;;1.88;0.70;;;20.90;99.90;;;;;;5019754;28;20036;-79
2021/06/03 00:28:00;;;;;;;4.50;0.60;;;20.90;99.90;;;;;;5018050;28;20094;-76
2021/06/03 00:30:26;;;;;;;1.65;0.60;;;20.80;99.90;;;;;;5004889;28;20025;-78
2021/06/03 00:32:52;;;;;;;2.17;0.80;;;20.80;99.90;;;;;;5000031;28;20029;-77
2021/06/03 00:35:19;;;;;;;1.30;0.65;;;20.80;99.90;;;;;;5021306;28;20022;-77
2021/06/03 00:37:46;;;;;;;4.07;0.82;;;20.80;99.90;;;;;;4999990;28;20022;-77
2021/06/03 00:40:13;;;;;;;1.40;0.63;;;20.80;99.90;;;;;;5049365;23;20421;-79
2021/06/03 00:42:40;;;;;;;3.85;0.73;;;20.70;99.90;;;;;;5060323;28;20017;-78
2021/06/03 00:45:09;;;;;;;2.13;0.93;;;20.70;99.90;;;;;;5041649;28;20113;-79
2021/06/03 00:47:35;;;;;;;1.40;0.52;;;20.60;99.90;;;;;;5055910;28;20029;-77
2021/06/03 00:50:01;;;;;;;2.58;0.95;;;20.60;99.90;;;;;;5056968;28;20025;-79
2021/06/03 00:52:27;;;;;;;8.82;0.60;;;20.70;99.90;;;;;;5057709;28;20029;-79
2021/06/03 00:54:52;;;;;;;3.78;0.57;;;20.80;99.90;;;;;;5042071;28;20037;-79
2021/06/03 00:57:18;;;;;;;4.65;0.57;;;20.80;99.90;;;;;;5042460;28;20501;-77
2021/06/03 00:59:43;;;;;;;3.47;0.90;;;20.70;99.90;;;;;;5058480;28;20120;-78
2021/06/03 01:02:09;;;;;;;4.38;1.20;;;20.60;99.90;;;;;;5033776;28;20402;-78
2021/06/03 01:04:35;;;;;;;2.58;1.33;;;20.60;99.90;;;;;;5047682;28;20080;-77
2021/06/03 01:07:02;;;;;;;0.70;0.60;;;20.50;99.90;;;;;;5037583;28;20021;-76
2021/06/03 01:09:34;;;;;;;1.20;0.70;;;20.50;99.90;;;;;;5055602;28;20028;-79
2021/06/03 01:12:15;;;;;;;1.65;0.90;;;20.40;99.90;;;;;;5038525;28;20053;-78
2021/06/03 01:14:47;;;;;;;1.95;0.22;;;20.40;99.90;;;;;;5038800;28;20029;-79
2021/06/03 01:17:12;;;;;;;0.60;0.60;;;20.30;99.90;;;;;;5056324;28;20029;-78
2021/06/03 01:19:41;;;;;;;3.97;0.77;;;20.40;99.90;;;;;;5055646;28;20394;-77
2021/06/03 01:22:17;;;;;;;2.65;1.17;;;20.30;99.90;;;;;;5044580;22;20511;-76
2021/06/03 01:24:48;;;;;;;1.27;0.88;;;20.30;99.90;;;;;;5036941;28;20500;-76
2021/06/03 01:27:26;;;;;;;1.30;0.75;;;20.30;99.90;;;;;;5039960;28;20028;-75
2021/06/03 01:30:03;;;;;;;5.57;0.93;;;20.30;99.90;;;;;;5054562;28;20033;-76
2021/06/03 01:32:32;;;;;;;2.90;0.80;;;20.50;99.90;;;;;;5053839;28;20112;-76
2021/06/03 01:34:58;;;;;;;;;;;20.60;99.90;;;;;;5053786;28;20025;-76
2021/06/03 01:37:24;;;;;;;1.08;0.52;;;20.60;99.90;;;;;;5053620;28;19912;-76
2021/06/03 01:39:50;;;;;;;4.20;0.88;;;20.60;99.90;;;;;;5035138;28;20013;-75
2021/06/03 01:42:18;;;;;;;2.55;0.90;;;20.60;99.90;;;;;;5038031;28;20017;-76
2021/06/03 01:44:44;;;;;;;4.23;0.80;;;20.60;99.90;;;;;;5033627;28;20463;-75
2021/06/03 01:47:11;;;;;;;1.58;0.50;;;20.50;99.90;;;;;;5032206;28;20272;-76
2021/06/03 01:49:37;;;;;;;2.53;0.68;;;20.50;99.90;;;;;;5043104;28;20099;-76
2021/06/03 01:52:05;;;;;;;1.65;1.00;;;20.50;99.90;;;;;;5053048;28;20052;-76
2021/06/03 01:54:31;;;;;;;3.15;0.80;;;20.50;99.90;;;;;;5035110;28;20111;-76
2021/06/03 01:56:58;;;;;;;3.75;0.43;;;20.50;99.90;;;;;;5053057;28;20027;-76
2021/06/03 01:59:23;;;;;;;2.45;0.80;;;20.40;99.90;;;;;;5052881;28;20448;-76
2021/06/03 02:01:49;;;;;;;1.50;0.70;;;20.30;99.90;;;;;;5035216;28;20032;-76
2021/06/03 02:04:15;;;;;;;1.15;0.45;;;20.30;99.90;;;;;;5053382;28;20029;-76
2021/06/03 02:06:41;;;;;;;1.75;0.82;;;20.20;99.90;;;;;;5055166;28;20037;-77
2021/06/03 02:09:09;;;;;;;8.15;1.35;;;20.30;99.90;;;;;;5055017;28;20036;-78
2021/06/03 02:11:40;;;;;;;1.98;0.60;;;20.20;99.90;;;;;;5054731;28;20025;-78
2021/06/03 02:14:09;;;;;;;0.93;0.63;;;20.10;99.90;;;;;;5059165;28;20060;-77
2021/06/03 02:16:44;;;;;;;1.55;0.50;;;20.10;99.90;;;;;;5058720;28;20023;-77
2021/06/03 02:19:22;;;;;;;1.50;0.90;;;20.00;99.90;;;;;;5058451;28;20494;-77
2021/06/03 02:21:49;;;;;;;2.95;0.60;;;20.00;99.90;;;;;;5095808;22;20127;-77
2021/06/03 02:24:15;;;;;;;1.05;0.35;;;20.00;99.90;;;;;;5048979;28;20025;-78
2021/06/03 02:26:44;;;;;;;1.15;0.57;;;20.00;99.90;;;;;;5090447;22;20876;-77
2021/06/03 02:29:39;;;;;;;2.28;0.45;;;19.90;99.90;;;;;;5059671;28;20444;-78
2021/06/03 02:32:11;;;;;;;1.38;0.73;;;19.90;99.90;;;;;;5059507;28;20063;-78
2021/06/03 02:37:13;;;;;;;2.90;0.70;;;19.70;99.90;;;;;;5036333;28;20049;-77
2021/06/03 02:39:40;;;;;;;1.30;0.50;;;19.70;99.90;;;;;;5046918;28;20308;-76
2021/06/03 02:44:36;;;;;;;3.22;0.50;;;19.60;99.90;;;;;;5056958;28;20413;-89
2021/06/03 02:47:04;;;;;;;5.90;0.60;;;18.90;99.90;;;;;;5044692;28;20025;-87
2021/06/03 02:49:29;;;;;;;0.85;0.40;;;19.40;99.90;;;;;;5048716;28;20611;-87
2021/06/03 02:51:55;;;;;;;1.83;0.77;;;19.30;99.90;;;;;;5048169;28;20031;-89
2021/06/03 02:54:21;;;;;;;0.50;0.45;;;21.20;99.90;;;;;;5058932;28;20033;-88
2021/06/03 02:56:46;;;;;;;2.17;1.08;;;19.00;99.90;;;;;;5062135;28;20094;-87
2021/06/03 02:59:12;;;;;;;3.03;0.85;;;19.10;99.90;;;;;;5045320;28;20525;-87
2021/06/03 03:01:37;;;;;;;0.52;0.35;;;19.00;99.90;;;;;;5045682;28;20489;-87
2021/06/03 03:04:03;;;;;;;1.33;0.55;;;20.00;99.90;;;;;;5044119;28;20103;-87
2021/06/03 03:06:29;;;;;;;1.35;0.82;;;19.00;99.90;;;;;;5062337;28;20021;-87
2021/06/03 03:08:54;;;;;;;1.30;0.90;;;19.00;99.90;;;;;;5045461;28;20032;-87
2021/06/03 03:11:20;;;;;;;2.30;0.68;;;19.00;99.90;;;;;;5066224;28;20074;-87
2021/06/03 03:13:46;;;;;;;1.55;0.95;;;16.00;99.90;;;;;;5080412;28;20013;-87
2021/06/03 03:16:11;;;;;;;3.72;1.02;;;20.20;99.90;;;;;;5048126;28;20021;-89
2021/06/03 03:18:40;;;;;;;2.72;1.13;;;18.90;99.90;;;;;;5046912;28;20009;-89
2021/06/03 03:21:06;;;;;;;3.03;0.90;;;18.90;99.90;;;;;;5043286;28;20025;-87
2021/06/03 03:23:35;;;;;;;2.47;0.80;;;18.90;99.90;;;;;;5043277;28;20021;-87
2021/06/03 03:26:00;;;;;;;;;;;18.90;99.90;;;;;;5027736;28;20478;-86
2021/06/03 03:28:26;;;;;;;3.25;0.57;;;18.80;99.90;;;;;;5042519;28;19963;-87
2021/06/03 03:30:53;;;;;;;2.95;1.08;;;18.80;99.90;;;;;;5044511;28;20462;-89
2021/06/03 03:33:19;;;;;;;1.67;0.70;;;19.80;99.90;;;;;;5057830;28;20262;-89
2021/06/03 03:35:46;;;;;;;1.92;0.85;;;18.40;99.90;;;;;;5044467;28;20085;-89
2021/06/03 03:38:16;;;;;;;1.38;0.93;;;18.60;99.90;;;;;;5043407;28;20396;-87
2021/06/03 03:40:42;;;;;;;2.05;0.50;;;18.60;99.90;;;;;;5012839;28;20029;-86
2021/06/03 03:43:08;;;;;;;1.90;1.13;;;18.50;99.90;;;;;;5038105;28;20121;-89
2021/06/03 03:45:34;;;;;;;2.75;1.27;;;19.70;99.90;;;;;;5039862;28;20036;-86
2021/06/03 03:48:01;;;;;;;4.30;1.25;;;18.40;99.90;;;;;;5044623;28;20477;-86
2021/06/03 03:50:27;;;;;;;1.75;1.23;;;18.40;99.90;;;;;;5063353;28;20482;-87
2021/06/03 03:52:53;;;;;;;1.15;0.80;;;18.40;99.90;;;;;;5059917;28;20443;-87
2021/06/03 03:55:19;;;;;;;1.10;0.75;;;21.30;99.90;;;;;;5041315;28;20017;-86
2021/06/03 03:57:47;;;;;;;5.75;1.17;;;18.40;99.90;;;;;;5042882;28;20036;-89
2021/06/03 04:00:16;;;;;;;3.38;0.90;;;20.60;99.90;;;;;;5042538;28;20015;-87
2021/06/03 04:02:43;;;;;;;2.88;1.20;;;18.30;99.90;;;;;;5042860;28;20107;-89
2021/06/03 04:05:09;;;;;;;2.78;1.67;;;18.20;99.90;;;;;;5041965;28;20064;-87
2021/06/03 04:07:37;;;;;;;2.83;1.05;;;18.20;99.90;;;;;;5040323;28;20108;-87
2021/06/03 04:10:10;;;;;;;2.73;1.40;;;19.60;99.90;;;;;;5060431;28;20016;-89
2021/06/03 04:12:36;;;;;;;1.63;1.23;;;18.20;99.90;;;;;;5042805;28;20116;-86
2021/06/03 04:15:02;;;;;;;1.90;1.27;;;19.70;99.90;;;;;;5068343;28;20032;-88
2021/06/03 04:17:28;;;;;;;1.52;1.13;;;18.20;99.90;;;;;;5063144;28;20028;-87
2021/06/03 04:19:53;;;;;;;4.15;1.95;;;18.10;99.90;;;;;;5043679;28;20029;-87
2021/06/03 04:22:19;;;;;;;2.60;1.45;;;18.10;99.90;;;;;;5040318;28;20028;-87
2021/06/03 04:24:45;;;;;;;2.53;1.38;;;18.20;99.90;;;;;;5041553;28;20025;-89
2021/06/03 04:27:10;;;;;;;2.45;1.23;;;20.70;99.90;;;;;;5045896;28;20029;-89
2021/06/03 04:29:36;;;;;;;4.05;1.40;;;18.10;99.90;;;;;;5042273;28;20032;-87
2021/06/03 04:32:04;;;;;;;2.20;1.58;;;18.20;99.90;;;;;;5041415;28;20040;-88
2021/06/03 04:34:29;;;;;;;2.10;1.10;;;18.20;99.90;;;;;;5060930;28;20009;-87
2021/06/03 04:36:55;;;;;;;3.53;1.50;;;20.80;99.90;;;;;;5041339;28;20012;-89
2021/06/03 04:39:20;;;;;;;3.22;1.27;;;18.20;99.90;;;;;;5056488;28;20424;-89
2021/06/03 04:41:46;;;;;;;2.28;1.40;;;18.30;99.90;;;;;;5056862;28;20086;-89
2021/06/03 04:44:12;;;;;;;2.58;1.85;;;21.20;99.90;;;;;;5040064;28;20032;-87
2021/06/03 04:46:41;;;;;;;2.33;1.63;;;18.00;99.90;;;;;;5043384;28;20481;-88
2021/06/03 04:49:07;;;;;;;2.25;1.42;;;18.30;99.90;;;;;;5043334;28;20021;-89
2021/06/03 04:51:38;;;;;;;2.70;2.03;;;18.30;99.90;;;;;;5038489;28;20025;-86
2021/06/03 04:54:07;;;;;;;3.15;1.73;;;19.60;99.90;;;;;;5041711;28;20482;-88
2021/06/03 04:56:33;;;;;;;4.80;1.85;;;19.10;99.90;;;;;;5039886;28;20029;-89
2021/06/03 04:59:02;;;;;;;3.55;1.67;;;20.60;99.90;;;;;;5056598;28;20108;-87
2021/06/03 05:01:28;;;;;;;8.35;2.00;;;19.90;99.90;;;;;;5058735;28;20025;-87
2021/06/03 05:03:53;;;;;;;4.75;2.05;;;19.40;99.90;;;;;;5041284;28;20029;-86
2021/06/03 05:06:20;;;;;;;4.47;1.80;;;18.70;99.90;;;;;;5041073;28;20283;-90
2021/06/03 05:08:45;;;;;;;3.22;2.08;;;18.70;99.90;;;;;;5037722;28;20032;-89
2021/06/03 05:11:11;;;;;;;4.88;2.50;;;20.00;99.90;;;;;;5039601;28;20025;-87
2021/06/03 05:13:37;;;;;;;4.13;1.85;;;19.10;99.90;;;;;;5059017;28;20025;-89
2021/06/03 05:16:03;;;;;;;2.90;1.50;;;19.80;99.90;;;;;;5039644;28;20078;-89
2021/06/03 05:18:29;;;;;;;4.78;2.58;;;19.30;99.90;;;;;;5059940;28;20021;-87
2021/06/03 05:20:55;;;;;;;5.40;1.98;;;19.40;99.90;;;;;;5042182;28;20029;-88
2021/06/03 05:23:22;;;;;;;3.65;1.52;;;21.70;99.90;;;;;;5052088;28;20032;-88
2021/06/03 05:25:48;;;;;;;3.80;2.10;;;21.40;99.90;;;;;;5054585;28;20079;-87
2021/06/03 05:28:13;;;;;;;3.20;1.58;;;19.80;99.90;;;;;;5039952;28;20021;-90
2021/06/03 05:30:39;;;;;;;3.75;1.90;;;19.70;99.90;;;;;;5041861;28;20052;-87
2021/06/03 05:33:06;;;;;;;3.20;1.90;;;22.70;99.90;;;;;;5056345;28;20053;-90
2021/06/03 05:35:32;;;;;;;2.80;1.75;;;21.90;99.90;;;;;;5039367;28;20021;-88
2021/06/03 05:37:58;;;;;;;3.53;1.77;;;22.10;99.90;;;;;;5057751;28;20474;-87
2021/06/03 05:40:26;;;;;;;5.22;2.42;;;20.00;99.90;;;;;;5042511;28;20033;-87
2021/06/03 05:42:54;;;;;;;4.50;2.63;;;22.80;99.90;;;;;;5061009;28;20025;-86
2021/06/03 05:45:21;;;;;;;2.58;2.20;;;20.30;99.90;;;;;;5059243;28;20029;-86
2021/06/03 05:47:49;;;;;;;3.10;2.05;;;20.40;99.90;;;;;;5058479;28;20017;-87
2021/06/03 05:50:18;;;;;;;2.53;1.88;;;22.80;99.90;;;;;;5040000;28;20032;-90
2021/06/03 05:52:44;;;;;;;3.22;2.53;;;23.50;99.90;;;;;;5037622;28;20021;-90
2021/06/03 05:55:12;;;;;;;4.22;2.20;;;20.60;99.90;;;;;;5042393;28;20444;-86
2021/06/03 05:57:39;;;;;;;6.07;2.28;;;20.90;99.90;;;;;;5057176;28;20043;-87
2021/06/03 06:00:09;;;;;;;16.67;3.05;;;23.00;99.90;;;;;;5040359;28;20056;-86
2021/06/03 06:08:16;;;;;;;4.95;2.35;;;21.00;99.90;;;;;;5058419;28;20052;-87
2021/06/03 06:10:43;;;;;;;4.90;2.78;;;21.20;99.90;;;;;;5041641;28;20074;-87
2021/06/03 06:13:09;;;;;;;5.18;2.67;;;21.40;99.90;;;;;;5043340;28;20489;-86
2021/06/03 06:15:36;;;;;;;4.57;2.85;;;21.70;99.90;;;;;;5041911;28;20021;-87
2021/06/03 06:18:03;;;;;;;4.38;2.45;;;22.60;99.90;;;;;;5058470;28;20053;-87
2021/06/03 06:20:29;;;;;;;3.88;2.80;;;21.70;99.90;;;;;;5039763;28;20029;-87
2021/06/03 06:22:56;;;;;;;4.90;3.00;;;23.80;99.90;;;;;;5042292;28;20027;-85
2021/06/03 06:25:22;;;;;;;4.57;2.80;;;22.20;99.90;;;;;;5041163;28;20023;-87
2021/06/03 06:27:48;;;;;;;8.95;3.53;;;24.10;99.90;;;;;;5039718;28;20018;-87
2021/06/03 06:30:14;;;;;;;4.22;2.80;;;23.80;99.90;;;;;;5041660;28;20079;-86
2021/06/03 06:32:40;;;;;;;7.32;3.35;;;22.60;99.90;;;;;;5037733;28;20055;-87
2021/06/03 06:35:07;;;;;;;3.78;2.78;;;22.50;99.90;;;;;;5038379;28;20040;-88
2021/06/03 06:37:33;;;;;;;5.55;2.78;;;22.50;99.90;;;;;;5037643;28;20116;-87
2021/06/03 06:39:59;;;;;;;5.43;2.63;;;22.50;99.90;;;;;;5038706;28;20037;-88
2021/06/03 06:42:25;;;;;;;5.55;3.28;;;22.60;99.90;;;;;;5059718;28;20044;-87
2021/06/03 06:44:51;;;;;;;8.15;3.03;;;23.10;99.90;;;;;;5023811;28;20490;-87
2021/06/03 06:47:17;;;;;;;5.90;2.40;;;22.50;99.90;;;;;;5039833;28;20020;-87
2021/06/03 06:49:42;;;;;;;3.50;2.00;;;22.50;99.90;;;;;;5038554;28;20032;-88
2021/06/03 06:52:08;;;;;;;6.40;2.78;;;22.40;99.90;;;;;;5057040;28;20025;-88
2021/06/03 06:54:34;;;;;;;6.75;2.30;;;22.30;99.90;;;;;;5037440;28;20025;-87
2021/06/03 06:56:59;;;;;;;3.22;2.17;;;22.30;99.90;;;;;;5056692;28;20082;-87
2021/06/03 06:59:25;;;;;;;5.35;2.15;;;22.50;99.90;;;;;;5040021;28;20052;-87
2021/06/03 07:01:51;;;;;;;4.18;3.28;;;22.60;99.90;;;;;;5041854;28;20017;-87
2021/06/03 07:04:16;;;;;;;6.60;2.65;;;25.30;99.90;;;;;;5041209;28;20017;-87
2021/06/03 07:06:42;;;;;;;3.25;2.35;;;25.40;99.90;;;;;;5041583;28;20025;-87
2021/06/03 07:09:08;;;;;;;4.90;2.25;;;24.20;99.90;;;;;;5039950;28;20074;-88
2021/06/03 07:11:34;;;;;;;5.35;2.60;;;24.60;99.90;;;;;;5039774;28;20059;-88
2021/06/03 07:14:02;;;;;;;6.60;2.33;;;22.60;99.90;;;;;;5058137;28;20033;-88
2021/06/03 07:16:28;;;;;;;3.53;1.90;;;22.60;99.90;;;;;;5040978;28;20167;-87
2021/06/03 07:18:54;;;;;;;5.55;3.28;;;22.50;99.90;;;;;;5040134;28;20071;-87
2021/06/03 07:21:19;;;;;;;5.00;2.80;;;26.00;99.90;;;;;;5057881;28;20493;-87
2021/06/03 07:23:48;;;;;;;4.43;2.60;;;23.80;99.90;;;;;;5059656;28;20023;-87
2021/06/03 07:26:14;;;;;;;;;;;22.40;99.90;;;;;;5043793;28;20021;-87
2021/06/03 07:28:39;;;;;;;6.07;2.20;;;23.10;99.90;;;;;;5041939;28;19920;-87
2021/06/03 07:31:05;;;;;;;3.50;2.03;;;25.60;99.90;;;;;;5058340;28;20036;-88
2021/06/03 07:33:31;;;;;;;5.22;2.38;;;23.10;99.90;;;;;;5058972;28;20021;-88
2021/06/03 07:35:56;;;;;;;6.90;3.00;;;23.00;99.90;;;;;;5040520;28;20147;-87
2021/06/03 07:38:23;;;;;;;3.40;2.20;;;22.90;99.90;;;;;;5059329;28;20101;-87
2021/06/03 07:40:49;;;;;;;5.43;1.92;;;22.90;99.90;;;;;;5042049;28;20540;-87
2021/06/03 07:43:14;;;;;;;3.67;2.15;;;23.00;99.90;;;;;;5041179;28;20029;-87
2021/06/03 07:45:41;;;;;;;13.45;2.42;;;23.20;99.90;;;;;;5040376;28;20028;-87
2021/06/03 07:48:10;;;;;;;3.70;2.33;;;23.40;99.90;;;;;;5042567;28;20424;-87
2021/06/03 07:50:37;;;;;;;4.97;2.42;;;23.70;99.90;;;;;;5041009;28;20021;-87
2021/06/03 07:53:04;;;;;;;3.08;2.25;;;25.10;99.90;;;;;;5039488;28;20057;-88
2021/06/03 07:55:30;;;;;;;5.30;2.28;;;24.50;99.90;;;;;;5041387;28;20470;-86
2021/06/03 07:57:59;;;;;;;4.55;2.13;;;26.50;99.90;;;;;;5043229;28;20025;-86
2021/06/03 08:00:26;;;;;;;6.70;2.08;;;25.70;99.50;;;;;;5061400;28;20382;-87
2021/06/03 08:02:52;;;;;;;3.78;2.50;;;24.20;99.30;;;;;;5041513;28;20127;-87
2021/06/03 08:05:21;;;;;;;8.27;3.28;;;24.30;99.40;;;;;;5040801;28;20490;-88
2021/06/03 08:07:48;;;;;;;4.13;2.30;;;25.00;98.70;;;;;;5039851;28;20092;-87
2021/06/03 08:10:17;;;;;;;5.65;2.58;;;24.50;99.50;;;;;;5039519;28;20112;-88
2021/06/03 08:12:43;;;;;;;3.88;1.70;;;24.40;98.40;;;;;;5040979;28;20021;-88
2021/06/03 08:15:11;;;;;;;3.45;2.05;;;26.40;98.70;;;;;;5040663;28;20025;-87
2021/06/03 08:17:37;;;;;;;5.53;2.67;;;24.70;97.10;;;;;;5042401;28;20029;-87
2021/06/03 08:20:09;;;;;;;3.92;2.15;;;25.40;97.00;;;;;;5039706;28;20290;-88
2021/06/03 08:22:36;;;;;;;4.57;2.40;;;24.70;97.30;;;;;;5058525;28;20017;-87
2021/06/03 08:25:02;;;;;;;3.85;1.95;;;26.50;97.40;;;;;;5040602;28;20428;-90
2021/06/03 08:27:28;;;;;;;7.25;2.08;;;25.10;96.80;;;;;;5040029;28;20025;-89
2021/06/03 08:29:53;;;;;;;4.53;2.42;;;25.00;96.40;;;;;;5040530;28;20063;-88
2021/06/03 08:32:19;;;;;;;4.63;2.50;;;27.00;96.30;;;;;;5061640;28;20025;-86
2021/06/03 08:34:44;;;;;;;3.28;1.70;;;25.30;94.80;;;;;;5042460;28;20025;-87
2021/06/03 08:37:10;;;;;;;4.57;2.17;;;25.30;94.50;;;;;;5041006;28;20029;-87
2021/06/03 08:39:36;;;;;;;5.90;2.10;;;27.80;95.50;;;;;;5040860;28;20053;-87
2021/06/03 08:42:02;;;;;;;3.95;2.22;;;25.30;96.00;;;;;;5042223;28;20056;-87
2021/06/03 08:44:28;;;;;;;5.05;2.22;;;25.10;95.30;;;;;;5040921;28;20052;-87
2021/06/03 08:46:58;;;;;;;4.35;2.35;;;25.70;96.00;;;;;;5040402;28;20398;-87
2021/06/03 08:49:24;;;;;;;4.38;1.77;;;26.50;96.10;;;;;;5039129;28;20025;-88
2021/06/03 08:51:52;;;;;;;3.50;1.55;;;25.30;95.30;;;;;;5040899;28;20051;-87
2021/06/03 08:54:18;;;;;;;4.63;1.73;;;28.10;95.70;;;;;;5058428;28;20021;-87
2021/06/03 08:56:44;;;;;;;2.88;1.90;;;25.50;95.60;;;;;;5039957;28;20024;-87
2021/06/03 08:59:09;;;;;;;3.65;2.15;;;28.30;96.70;;;;;;5039477;28;20042;-87
2021/06/03 09:01:35;;;;;;;9.50;1.83;;;27.10;96.30;;;;;;5039875;28;20115;-87
2021/06/03 09:04:01;;;;;;;2.95;1.70;;;26.80;95.40;;;;;;5042263;28;20033;-86
2021/06/03 09:06:27;;;;;;;10.00;2.55;;;25.60;97.80;;;;;;5041926;28;20051;-86
2021/06/03 09:08:57;;;;;;;3.30;2.33;;;25.50;94.60;;;;;;5041539;28;20021;-87
2021/06/03 09:11:24;;;;;;;4.63;3.10;;;25.60;93.40;;;;;;5059931;28;20025;-87
2021/06/03 09:13:52;;;;;;;5.05;3.00;;;25.90;93.30;;;;;;5059985;28;20032;-86
2021/06/03 09:16:21;;;;;;;3.30;2.28;;;27.30;94.20;;;;;;5041419;28;20020;-86
2021/06/03 09:18:53;;;;;;;6.53;2.58;;;26.10;94.20;;;;;;5040145;28;20028;-88
2021/06/03 09:21:22;;;;;;;4.45;2.13;;;26.20;91.80;;;;;;5042177;28;20401;-87
2021/06/03 09:24:00;;;;;;;5.22;2.38;;;26.20;90.20;;;;;;5040683;28;20017;-87
2021/06/03 09:26:30;;;;;;;3.90;2.10;;;26.30;91.10;;;;;;5041618;28;20017;-86
2021/06/03 09:28:57;;;;;;;5.30;1.92;;;26.10;90.60;;;;;;5039936;28;20386;-87
2021/06/03 09:31:29;;;;;;;3.53;1.80;;;28.30;91.00;;;;;;5040136;28;20020;-86
2021/06/03 09:33:56;;;;;;;2.40;1.33;;;25.80;91.20;;;;;;5039697;28;20055;-87
2021/06/03 09:36:56;;;;;;;3.42;0.85;;;25.60;90.80;;;;;;5038774;28;20033;-87
2021/06/03 09:39:30;;;;;;;2.95;0.70;;;25.50;90.30;;;;;;5021243;28;20041;-87
2021/06/03 09:42:02;;;;;;;0.52;0.35;;;25.40;88.00;;;;;;5039304;28;20112;-87
2021/06/03 09:44:40;;;;;;;1.13;0.52;;;25.40;87.20;;;;;;5039542;28;20456;-87
2021/06/03 09:47:17;;;;;;;0.32;0.15;;;25.30;86.80;;;;;;5039309;28;20031;-87
2021/06/03 09:49:56;;;;;;;1.17;0.20;;;25.10;86.40;;;;;;5039355;28;20024;-87
2021/06/03 09:52:34;;;;;;;1.65;0.25;;;25.10;88.00;;;;;;5038322;28;20116;-88
2021/06/03 09:55:03;;;;;;;0.85;0.30;;;25.40;86.80;;;;;;5039997;28;20124;-87
2021/06/03 09:57:30;;;;;;;1.27;0.20;;;25.60;85.80;;;;;;5042716;28;20402;-89
2021/06/03 10:00:02;;;;;;;1.75;0.40;;;25.60;88.80;;;;;;5062943;28;20094;-87
2021/06/03 10:02:32;;;;;;;1.88;0.22;;;25.40;86.10;;;;;;5043382;28;20150;-87
2021/06/03 10:04:58;;;;;;;2.33;0.20;;;26.00;87.10;;;;;;5043339;28;20033;-87
2021/06/03 10:07:30;;;;;;;0.85;0.30;;;25.60;82.30;;;;;;5062767;28;20028;-88
2021/06/03 10:10:09;;;;;;;0.85;0.40;;;27.20;83.60;;;;;;5048219;28;20040;-89
2021/06/03 10:12:37;;;;;;;2.60;0.80;;;26.40;85.00;;;;;;5039158;28;20016;-87
2021/06/03 10:15:06;;;;;;;1.67;0.68;;;26.80;84.10;;;;;;5036981;28;20032;-89
2021/06/03 10:17:37;;;;;;;1.48;0.30;;;26.60;81.00;;;;;;5036727;28;20036;-89
2021/06/03 10:20:12;;;;;;;1.13;0.40;;;26.80;80.70;;;;;;5036743;28;20025;-89
2021/06/03 10:22:47;;;;;;;3.05;0.55;;;26.60;79.60;;;;;;5054318;28;20052;-88
2021/06/03 10:25:15;;;;;;;0.68;0.30;;;26.60;82.10;;;;;;5053946;28;20021;-88
2021/06/03 10:27:45;;;;;;;0.90;0.55;;;26.50;82.20;;;;;;5036018;28;20013;-88
2021/06/03 10:30:41;;;;;;;2.90;0.20;;;26.80;82.40;;;;;;5054300;28;20029;-87
2021/06/03 10:33:18;;;;;;;3.83;0.77;;;27.40;81.50;;;;;;5008704;28;20036;-88
2021/06/03 10:35:47;;;;;;;1.00;0.55;;;27.60;77.30;;;;;;5041611;28;20112;-88
2021/06/03 10:38:26;;;;;;;3.38;0.80;;;28.10;77.90;;;;;;5041359;28;20481;-89
2021/06/03 10:41:03;;;;;;;2.30;0.60;;;27.40;78.50;;;;;;5059022;28;20113;-88
2021/06/03 10:43:31;;;;;;;4.10;1.70;;;27.30;77.80;;;;;;5040932;28;20429;-88
2021/06/03 10:45:59;;;;;;;1.38;0.77;;;27.10;77.50;;;;;;5056846;28;20029;-87
2021/06/03 10:48:36;;;;;;;3.75;1.60;;;29.00;85.20;;;;;;5058445;28;20013;-87
2021/06/03 10:51:07;;;;;;;3.40;1.65;;;27.90;87.60;;;;;;5040218;28;20371;-88
2021/06/03 10:53:34;;;;;;;4.95;1.08;;;26.50;86.50;;;;;;5058283;28;20021;-89
2021/06/03 10:56:14;;;;;;;1.90;0.80;;;26.20;85.70;;;;;;5058341;28;20101;-87
2021/06/03 10:58:43;;;;;;;1.88;0.60;;;26.30;86.30;;;;;;5057864;28;20021;-88
2021/06/03 11:01:12;;;;;;;1.98;0.65;;;28.60;85.90;;;;;;5040642;28;20067;-87
2021/06/03 11:03:47;;;;;;;1.20;0.82;;;26.60;84.50;;;;;;5040232;28;20088;-86
2021/06/03 11:06:16;;;;;;;1.77;1.05;;;26.30;83.60;;;;;;5039903;28;20025;-87
2021/06/03 11:09:05;;;;;;;1.00;0.90;;;26.10;89.10;;;;;;5039540;28;20553;-87
2021/06/03 11:12:12;;;;;;;5.43;1.13;;;28.10;90.60;;;;;;5057871;28;20013;-87
2021/06/03 11:15:07;;;;;;;3.30;1.35;;;24.60;92.00;;;;;;5039160;28;20124;-89
2021/06/03 11:18:08;;;;;;;1.88;1.15;;;26.10;87.70;;;;;;5057184;28;20478;-87
2021/06/03 11:20:59;;;;;;;1.77;1.30;;;26.00;90.00;;;;;;4960025;28;20039;-87
2021/06/03 11:23:34;;;;;;;2.85;1.65;;;23.20;88.80;;;;;;5032939;28;20032;-90
2021/06/03 11:26:06;;;;;;;3.17;2.25;;;26.20;85.40;;;;;;5039550;28;20040;-89
2021/06/03 11:28:34;;;;;;;3.55;1.50;;;27.10;85.70;;;;;;5039599;28;20021;-88
2021/06/03 11:31:23;;;;;;;2.95;1.27;;;28.70;89.10;;;;;;5039597;28;20060;-88
2021/06/03 11:34:08;;;;;;;3.03;1.55;;;30.20;90.60;;;;;;5040424;28;20029;-89
2021/06/03 11:36:37;;;;;;;2.83;1.80;;;27.90;90.90;;;;;;5039529;28;20029;-88
2021/06/03 11:39:29;;;;;;;4.93;2.67;;;27.70;87.70;;;;;;5039818;28;20144;-88
2021/06/03 11:42:14;;;;;;;5.32;1.77;;;28.90;85.40;;;;;;5057453;28;20033;-88
2021/06/03 11:45:12;;;;;;;3.20;1.58;;;29.20;90.00;;;;;;5056310;28;20116;-88
2021/06/03 11:47:44;;;;;;;3.72;1.92;;;28.40;78.10;;;;;;5049931;28;20029;-88
2021/06/03 11:50:15;;;;;;;3.45;1.42;;;29.30;81.00;;;;;;5039051;28;20486;-88
2021/06/03 11:53:04;;;;;;;4.35;1.83;;;27.80;79.30;;;;;;5039130;28;20166;-88
2021/06/03 11:55:42;;;;;;;2.63;1.73;;;26.60;82.50;;;;;;5026911;28;20033;-88
2021/06/03 11:58:39;;;;;;;8.55;3.10;;;27.30;81.00;;;;;;5056837;28;20027;-89
2021/06/03 12:01:09;;;;;;;5.35;2.58;;;27.80;78.80;;;;;;5056799;28;20033;-90
2021/06/03 12:03:44;;;;;;;8.90;4.55;;;28.00;80.60;;;;;;5038256;28;20021;-89
2021/06/03 12:06:16;;;;;;;6.10;3.20;;;27.90;78.90;;;;;;5040142;28;20029;-89
2021/06/03 12:08:52;;;;;;;5.80;2.70;;;27.70;79.40;;;;;;5058556;28;20486;-89
2021/06/03 12:11:49;;;;;;;7.47;2.60;;;27.30;81.70;;;;;;5041168;28;20017;-89
2021/06/03 12:14:22;;;;;;;2.35;1.35;;;27.50;79.90;;;;;;5042337;28;20021;-89
2021/06/03 12:16:52;;;;;;;2.60;1.25;;;28.00;81.50;;;;;;5041689;28;20044;-89
2021/06/03 12:19:24;;;;;;;3.30;1.90;;;28.30;76.80;;;;;;5041854;28;20382;-89
2021/06/03 12:21:59;;;;;;;3.92;1.70;;;28.10;73.00;;;;;;5042352;28;20029;-88
2021/06/03 12:24:53;;;;;;;3.55;2.17;;;28.10;73.50;;;;;;5038280;28;20107;-88
2021/06/03 12:27:27;;;;;;;3.95;1.77;;;28.30;76.00;;;;;;5036343;28;20037;-88
2021/06/03 12:29:55;;;;;;;2.40;1.30;;;28.30;73.80;;;;;;5039126;28;20118;-88
2021/06/03 12:32:22;;;;;;;5.25;2.40;;;29.80;76.50;;;;;;5038715;28;20033;-88
2021/06/03 12:35:13;;;;;;;3.95;2.47;;;29.40;73.70;;;;;;5057115;28;20028;-90
2021/06/03 12:37:42;;;;;;;2.72;1.42;;;28.20;71.40;;;;;;5010299;28;20047;-88
2021/06/03 12:40:27;;;;;;;2.80;1.30;;;28.00;77.60;;;;;;5038258;28;20111;-87
2021/06/03 12:43:01;;;;;;;2.08;1.17;;;28.80;73.70;;;;;;5056546;28;20082;-88
2021/06/03 12:45:47;;;;;;;2.83;0.90;;;29.40;77.50;;;;;;5038492;28;20071;-89
2021/06/03 12:48:14;;;;;;;3.70;2.72;;;28.60;75.20;;;;;;5040715;28;20025;-88
2021/06/03 12:50:59;;;;;;;6.18;3.63;;;31.60;72.80;;;;;;5063744;28;20032;-88
2021/06/03 12:53:28;;;;;;;6.82;4.25;;;32.00;74.00;;;;;;5066228;28;20073;-89
2021/06/03 12:56:14;;;;;;;5.97;3.83;;;29.70;74.40;;;;;;5041735;28;20025;-88
2021/06/03 12:58:47;;;;;;;4.28;2.70;;;28.00;75.60;;;;;;5038369;28;20021;-89
2021/06/03 13:01:15;;;;;;;8.00;5.10;;;27.80;82.80;;;;;;5056315;28;20070;-89
2021/06/03 13:03:41;;;;;;;4.57;3.13;;;27.60;76.60;;;;;;5038658;28;20542;-88
2021/06/03 13:06:10;;;;;;;8.00;4.38;;;30.10;83.60;;;;;;5038479;28;20509;-88
2021/06/03 13:09:09;;;;;;;6.18;4.00;;;27.30;82.40;;;;;;5038555;28;20025;-88
2021/06/03 13:11:38;;;;;;;4.95;3.00;;;28.20;84.60;;;;;;5024055;28;20196;-88